createdAt,value
2019-03-24T00:01:13.106Z,7.70
2019-03-24T00:03:44.779Z,7.60
2019-03-24T00:06:16.416Z,7.50
2019-03-24T00:08:47.984Z,7.40
2019-03-24T00:11:19.666Z,7.40
2019-03-24T00:13:51.254Z,7.30
2019-03-24T00:16:22.903Z,7.30
2019-03-24T00:18:55.849Z,7.20
2019-03-24T00:21:27.473Z,7.20
2019-03-24T00:23:59.085Z,7.20
2019-03-24T00:26:31.781Z,7.10
2019-03-24T00:29:03.439Z,7.10
2019-03-24T00:31:35.030Z,7.00
2019-03-24T00:34:06.543Z,6.90
2019-03-24T00:36:38.186Z,6.80
2019-03-24T00:39:09.781Z,6.80
2019-03-24T00:41:41.504Z,6.90
2019-03-24T00:44:13.180Z,6.90
2019-03-24T00:46:44.764Z,7.00
2019-03-24T00:49:16.466Z,7.00
2019-03-24T00:51:48.047Z,7.10
2019-03-24T00:54:21.344Z,7.10
2019-03-24T00:56:52.975Z,7.10
2019-03-24T00:59:24.705Z,7.10
2019-03-24T01:01:56.254Z,7.10
2019-03-24T01:04:27.914Z,7.10
2019-03-24T01:06:59.631Z,7.00
2019-03-24T01:09:31.611Z,7.00
2019-03-24T01:12:03.366Z,7.00
2019-03-24T01:14:35.032Z,7.00
2019-03-24T01:17:06.804Z,6.90
2019-03-24T01:19:38.620Z,6.90
2019-03-24T01:22:10.257Z,6.80
2019-03-24T01:24:41.958Z,6.80
2019-03-24T01:27:13.634Z,6.70
2019-03-24T01:29:45.289Z,6.70
2019-03-24T01:32:16.972Z,6.70
2019-03-24T01:34:48.702Z,6.70
2019-03-24T01:37:20.259Z,6.70
2019-03-24T01:39:51.893Z,6.70
2019-03-24T01:42:23.559Z,6.70
2019-03-24T01:44:55.270Z,6.70
2019-03-24T01:47:26.939Z,6.60
2019-03-24T01:49:58.590Z,6.60
2019-03-24T01:52:30.224Z,6.60
2019-03-24T01:55:01.898Z,6.60
2019-03-24T01:57:33.494Z,6.60
2019-03-24T02:00:05.603Z,6.50
2019-03-24T02:02:37.314Z,6.60
2019-03-24T02:05:09.194Z,6.60
2019-03-24T02:07:40.787Z,6.70
2019-03-24T02:10:13.146Z,6.70
2019-03-24T02:12:44.732Z,6.70
2019-03-24T02:15:16.499Z,6.80
2019-03-24T02:17:48.169Z,6.90
2019-03-24T02:20:19.807Z,6.90
2019-03-24T02:22:51.402Z,7.00
2019-03-24T02:25:22.994Z,7.00
2019-03-24T02:27:54.598Z,7.00
2019-03-24T02:30:26.259Z,7.00
2019-03-24T02:32:58.114Z,7.00
2019-03-24T02:35:29.783Z,7.00
2019-03-24T02:38:01.426Z,7.10
2019-03-24T02:40:33.087Z,7.10
2019-03-24T02:43:04.733Z,7.10
2019-03-24T02:45:36.312Z,7.10
2019-03-24T02:48:07.964Z,7.10
2019-03-24T02:50:39.664Z,7.10
2019-03-24T02:53:11.273Z,7.10
2019-03-24T02:55:42.931Z,7.10
2019-03-24T02:58:14.778Z,7.20
2019-03-24T03:00:46.469Z,7.20
2019-03-24T03:03:18.142Z,7.20
2019-03-24T03:05:49.854Z,7.20
2019-03-24T03:08:21.510Z,7.20
2019-03-24T03:10:53.110Z,7.30
2019-03-24T03:13:24.743Z,7.30
2019-03-24T03:15:56.452Z,7.30
2019-03-24T03:18:28.067Z,7.30
2019-03-24T03:20:59.747Z,7.30
2019-03-24T03:23:31.327Z,7.20
2019-03-24T03:26:02.948Z,7.30
2019-03-24T03:28:34.536Z,7.30
2019-03-24T03:31:06.209Z,7.30
2019-03-24T03:33:37.865Z,7.30
2019-03-24T03:36:09.507Z,7.30
2019-03-24T03:38:41.145Z,7.30
2019-03-24T03:41:12.923Z,7.30
2019-03-24T03:43:44.553Z,7.30
2019-03-24T03:46:16.186Z,7.30
2019-03-24T03:48:47.840Z,7.30
2019-03-24T03:51:19.456Z,7.30
2019-03-24T03:53:51.099Z,7.30
2019-03-24T03:56:22.680Z,7.30
2019-03-24T03:58:54.295Z,7.20
2019-03-24T04:01:25.940Z,7.30
2019-03-24T04:03:57.503Z,7.20
2019-03-24T04:06:29.106Z,7.20
2019-03-24T04:09:00.705Z,7.20
2019-03-24T04:11:32.372Z,7.20
2019-03-24T04:14:04.182Z,7.10
2019-03-24T04:16:35.785Z,7.00
2019-03-24T04:19:07.457Z,7.00
2019-03-24T04:21:39.160Z,6.80
2019-03-24T04:24:10.853Z,6.70
2019-03-24T04:26:42.529Z,6.70
2019-03-24T04:29:14.179Z,6.50
2019-03-24T04:31:45.930Z,6.40
2019-03-24T04:34:17.506Z,6.30
2019-03-24T04:36:49.198Z,6.30
2019-03-24T04:39:20.818Z,6.20
2019-03-24T04:41:52.560Z,6.10
2019-03-24T04:44:24.132Z,6.10
2019-03-24T04:46:55.840Z,6.00
2019-03-24T04:49:27.457Z,6.00
2019-03-24T04:51:59.101Z,5.90
2019-03-24T04:54:30.718Z,5.90
2019-03-24T04:57:02.410Z,5.90
2019-03-24T04:59:34.018Z,5.80
2019-03-24T05:02:05.710Z,5.70
2019-03-24T05:04:37.442Z,5.70
2019-03-24T05:07:10.374Z,5.70
2019-03-24T05:09:43.505Z,5.70
2019-03-24T05:12:15.157Z,5.70
2019-03-24T05:14:46.787Z,5.70
2019-03-24T05:17:26.768Z,5.70
2019-03-24T05:19:51.730Z,5.70
2019-03-24T05:22:23.382Z,5.60
2019-03-24T05:24:54.985Z,5.60
2019-03-24T05:27:26.673Z,5.50
2019-03-24T05:29:58.255Z,5.40
2019-03-24T05:32:29.850Z,5.40
2019-03-24T05:35:01.470Z,5.40
2019-03-24T05:37:33.201Z,5.40
2019-03-24T05:40:04.958Z,5.40
2019-03-24T05:42:36.631Z,5.50
2019-03-24T05:45:08.311Z,5.50
2019-03-24T05:47:39.977Z,5.60
2019-03-24T05:50:11.849Z,5.70
2019-03-24T05:52:43.506Z,5.70
2019-03-24T05:55:15.058Z,5.80
2019-03-24T05:57:46.692Z,5.90
2019-03-24T06:00:18.380Z,6.00
2019-03-24T06:02:50.018Z,6.20
2019-03-24T06:05:21.679Z,6.30
2019-03-24T06:07:54.285Z,6.40
2019-03-24T06:10:25.897Z,6.60
2019-03-24T06:12:57.457Z,6.70
2019-03-24T06:15:29.222Z,6.80
2019-03-24T06:18:00.899Z,6.90
2019-03-24T06:20:32.665Z,7.00
2019-03-24T06:23:04.520Z,7.10
2019-03-24T06:25:37.173Z,7.20
2019-03-24T06:28:08.933Z,7.30
2019-03-24T06:30:40.618Z,7.40
2019-03-24T06:33:12.289Z,7.70
2019-03-24T06:35:44.063Z,7.80
2019-03-24T06:38:15.726Z,8.00
2019-03-24T06:40:47.419Z,8.20
2019-03-24T06:43:20.786Z,8.30
2019-03-24T06:45:52.838Z,8.40
2019-03-24T06:48:24.915Z,8.40
2019-03-24T06:50:56.562Z,8.40
2019-03-24T06:53:28.328Z,8.40
2019-03-24T06:56:00.052Z,8.40
2019-03-24T06:58:31.853Z,8.50
2019-03-24T07:01:03.598Z,8.60
2019-03-24T07:03:35.693Z,8.60
2019-03-24T07:06:07.725Z,8.70
2019-03-24T07:08:39.549Z,8.60
2019-03-24T07:11:13.669Z,8.70
2019-03-24T07:13:45.483Z,8.80
2019-03-24T07:16:18.513Z,9.00
2019-03-24T07:18:50.512Z,9.20
2019-03-24T07:21:22.875Z,9.30
2019-03-24T07:23:55.146Z,9.50
2019-03-24T07:26:38.528Z,9.60
2019-03-24T07:29:10.736Z,9.70
2019-03-24T07:31:42.565Z,9.90
2019-03-24T07:34:15.815Z,10.10
2019-03-24T07:36:47.760Z,10.30
2019-03-24T07:39:19.553Z,10.30
2019-03-24T07:41:51.541Z,10.30
2019-03-24T07:44:24.410Z,10.40
2019-03-24T07:46:56.234Z,10.40
2019-03-24T07:49:28.276Z,10.60
2019-03-24T07:52:00.097Z,10.60
2019-03-24T07:54:31.951Z,10.60
2019-03-24T07:57:03.760Z,10.80
2019-03-24T07:59:35.588Z,11.00
2019-03-24T08:02:08.410Z,11.20
2019-03-24T08:04:41.705Z,11.40
2019-03-24T08:07:13.733Z,11.40
2019-03-24T08:09:45.566Z,11.60
2019-03-24T08:12:17.328Z,11.90
2019-03-24T08:14:49.326Z,12.00
2019-03-24T08:17:21.591Z,12.00
2019-03-24T08:19:54.998Z,12.20
2019-03-24T08:22:27.366Z,12.20
2019-03-24T08:24:59.833Z,12.20
2019-03-24T08:27:31.614Z,12.10
2019-03-24T08:30:03.849Z,12.10
2019-03-24T08:32:35.867Z,12.20
2019-03-24T08:35:07.847Z,12.50
2019-03-24T08:37:39.691Z,12.80
2019-03-24T08:40:11.960Z,13.10
2019-03-24T08:42:43.946Z,13.40
2019-03-24T08:45:23.670Z,13.50
2019-03-24T08:47:55.561Z,13.80
2019-03-24T08:50:27.808Z,14.00
2019-03-24T08:52:59.589Z,14.20
2019-03-24T08:55:31.779Z,14.40
2019-03-24T08:58:03.921Z,14.70
2019-03-24T09:00:35.965Z,14.60
2019-03-24T09:03:09.800Z,14.40
2019-03-24T09:05:41.667Z,14.00
2019-03-24T09:08:13.519Z,13.30
2019-03-24T09:10:45.114Z,13.10
2019-03-24T09:13:17.175Z,13.00
2019-03-24T09:15:49.386Z,13.20
2019-03-24T09:18:21.685Z,13.30
2019-03-24T09:20:53.714Z,13.10
2019-03-24T09:23:25.549Z,12.80
2019-03-24T09:25:57.456Z,12.80
2019-03-24T09:28:29.159Z,13.00
2019-03-24T09:31:00.964Z,13.40
2019-03-24T09:33:32.812Z,14.00
2019-03-24T09:36:04.788Z,14.40
2019-03-24T09:38:36.509Z,14.40
2019-03-24T09:41:08.469Z,14.10
2019-03-24T09:43:40.359Z,13.90
2019-03-24T09:46:12.215Z,14.00
2019-03-24T09:48:44.623Z,14.30
2019-03-24T09:51:17.019Z,14.80
2019-03-24T09:53:49.661Z,15.40
2019-03-24T09:56:21.662Z,15.20
2019-03-24T09:58:53.547Z,15.50
2019-03-24T10:01:26.163Z,16.00
2019-03-24T10:03:58.018Z,16.00
2019-03-24T10:09:21.066Z,16.30
2019-03-24T10:11:53.139Z,16.40
2019-03-24T10:14:24.859Z,16.50
2019-03-24T10:16:56.824Z,16.50
2019-03-24T10:19:28.587Z,15.60
2019-03-24T10:22:02.019Z,15.20
2019-03-24T10:24:33.755Z,15.10
2019-03-24T10:27:05.549Z,14.60
2019-03-24T10:29:37.346Z,14.60
2019-03-24T10:32:09.045Z,15.10
2019-03-24T10:34:40.765Z,15.40
2019-03-24T10:37:12.464Z,15.50
2019-03-24T10:39:44.135Z,15.50
2019-03-24T10:42:15.853Z,15.60
2019-03-24T10:44:47.643Z,15.60
2019-03-24T10:47:19.378Z,15.50
2019-03-24T10:49:50.983Z,15.80
2019-03-24T10:52:23.189Z,16.10
2019-03-24T10:54:55.084Z,16.10
2019-03-24T10:57:26.958Z,16.20
2019-03-24T10:59:58.779Z,15.90
2019-03-24T11:02:30.537Z,15.70
2019-03-24T11:05:02.339Z,15.60
2019-03-24T11:07:34.262Z,15.50
2019-03-24T11:10:08.691Z,15.60
2019-03-24T11:12:40.347Z,15.80
2019-03-24T11:15:12.189Z,16.20
2019-03-24T11:17:45.119Z,16.40
2019-03-24T11:20:17.077Z,16.20
2019-03-24T11:22:48.810Z,16.10
2019-03-24T11:25:20.575Z,16.30
2019-03-24T11:27:52.363Z,16.10
2019-03-24T11:30:24.113Z,16.40
2019-03-24T11:32:56.497Z,16.70
2019-03-24T11:35:28.380Z,16.90
2019-03-24T11:38:00.356Z,17.40
2019-03-24T11:40:32.496Z,17.50
2019-03-24T11:43:04.479Z,17.50
2019-03-24T11:45:36.192Z,17.50
2019-03-24T11:48:07.953Z,17.50
2019-03-24T11:50:39.655Z,17.80
2019-03-24T11:53:11.433Z,18.00
2019-03-24T11:55:43.177Z,17.50
2019-03-24T11:58:15.881Z,16.90
2019-03-24T12:00:47.732Z,16.70
2019-03-24T12:03:19.511Z,16.60
2019-03-24T12:05:51.257Z,16.50
2019-03-24T12:08:23.067Z,16.40
2019-03-24T12:10:54.855Z,16.30
2019-03-24T12:13:26.694Z,16.40
2019-03-24T12:15:58.526Z,16.50
2019-03-24T12:18:30.280Z,16.40
2019-03-24T12:21:02.031Z,16.40
2019-03-24T12:23:34.233Z,16.70
2019-03-24T12:26:06.051Z,17.10
2019-03-24T12:28:37.794Z,17.60
2019-03-24T12:31:09.492Z,17.70
2019-03-24T12:33:41.171Z,18.00
2019-03-24T12:36:12.959Z,18.20
2019-03-24T12:38:46.700Z,17.80
2019-03-24T12:41:19.632Z,17.40
2019-03-24T12:43:51.443Z,17.30
2019-03-24T12:46:23.353Z,17.00
2019-03-24T12:48:55.527Z,17.20
2019-03-24T12:51:27.281Z,16.90
2019-03-24T12:53:59.040Z,17.20
2019-03-24T12:56:30.853Z,17.50
2019-03-24T12:59:02.942Z,17.70
2019-03-24T13:01:34.612Z,17.40
2019-03-24T13:04:06.370Z,17.40
2019-03-24T13:06:39.686Z,17.60
2019-03-24T13:09:11.344Z,17.50
2019-03-24T13:11:43.075Z,17.50
2019-03-24T13:14:14.730Z,17.50
2019-03-24T13:16:46.635Z,17.60
2019-03-24T13:19:18.415Z,17.70
2019-03-24T13:21:50.171Z,17.50
2019-03-24T13:24:21.902Z,17.20
2019-03-24T13:26:54.931Z,16.80
2019-03-24T13:29:27.134Z,16.60
2019-03-24T13:31:58.701Z,16.60
2019-03-24T13:34:30.453Z,16.60
2019-03-24T13:37:04.181Z,16.80
2019-03-24T13:39:35.695Z,17.10
2019-03-24T13:42:07.408Z,17.40
2019-03-24T13:44:40.635Z,17.70
2019-03-24T13:47:12.475Z,17.80
2019-03-24T13:49:44.425Z,18.20
2019-03-24T13:52:16.184Z,18.40
2019-03-24T13:54:48.425Z,18.50
2019-03-24T13:57:20.181Z,18.50
2019-03-24T13:59:51.931Z,18.10
2019-03-24T14:02:23.656Z,18.20
2019-03-24T14:04:55.319Z,18.60
2019-03-24T14:07:26.943Z,18.60
2019-03-24T14:09:58.670Z,18.70
2019-03-24T14:12:30.392Z,18.90
2019-03-24T14:15:02.446Z,19.30
2019-03-24T14:17:34.082Z,19.70
2019-03-24T14:20:06.183Z,19.70
2019-03-24T14:22:37.947Z,19.40
2019-03-24T14:25:10.035Z,19.20
2019-03-24T14:27:41.801Z,19.30
2019-03-24T14:30:14.070Z,19.20
2019-03-24T14:32:45.797Z,19.00
2019-03-24T14:35:19.766Z,18.70
2019-03-24T14:37:53.223Z,18.70
2019-03-24T14:40:25.169Z,18.90
2019-03-24T14:42:56.877Z,18.50
2019-03-24T14:45:28.723Z,18.10
2019-03-24T14:48:00.514Z,17.80
2019-03-24T14:50:32.175Z,17.20
2019-03-24T14:53:03.907Z,16.90
2019-03-24T14:55:35.525Z,16.80
2019-03-24T14:58:07.277Z,16.40
2019-03-24T15:00:41.120Z,15.70
2019-03-24T15:03:13.599Z,15.20
2019-03-24T15:05:45.309Z,14.70
2019-03-24T15:08:17.255Z,14.20
2019-03-24T15:10:48.965Z,13.90
2019-03-24T15:13:20.644Z,13.80
2019-03-24T15:15:52.372Z,13.80
2019-03-24T15:18:24.089Z,13.80
2019-03-24T15:21:05.144Z,13.90
2019-03-24T15:23:29.057Z,13.90
2019-03-24T15:26:01.908Z,13.80
2019-03-24T15:28:33.664Z,13.60
2019-03-24T15:31:05.358Z,13.40
2019-03-24T15:33:37.129Z,13.20
2019-03-24T15:36:08.828Z,13.00
2019-03-24T15:38:40.661Z,12.90
2019-03-24T15:41:12.434Z,12.90
2019-03-24T15:43:44.090Z,12.90
2019-03-24T15:46:15.755Z,12.80
2019-03-24T15:48:50.011Z,12.70
2019-03-24T15:51:20.731Z,12.60
2019-03-24T15:53:52.806Z,12.50
2019-03-24T15:56:35.704Z,12.50
2019-03-24T15:59:08.881Z,12.50
2019-03-24T16:01:40.698Z,12.50
2019-03-24T16:04:12.952Z,12.50
2019-03-24T16:06:44.836Z,12.50
2019-03-24T16:09:16.805Z,12.50
2019-03-24T16:11:48.678Z,12.40
2019-03-24T16:14:20.432Z,12.40
2019-03-24T16:16:52.267Z,12.40
2019-03-24T16:19:23.981Z,12.40
2019-03-24T16:21:55.727Z,12.40
2019-03-24T16:24:27.701Z,12.30
2019-03-24T16:26:59.515Z,12.30
2019-03-24T16:29:31.334Z,12.30
2019-03-24T16:32:03.199Z,12.20
2019-03-24T16:34:36.083Z,12.20
2019-03-24T16:37:07.781Z,12.10
2019-03-24T16:39:39.496Z,11.90
2019-03-24T16:42:11.142Z,11.80
2019-03-24T16:44:42.801Z,11.70
2019-03-24T16:47:14.534Z,11.70
2019-03-24T16:49:46.590Z,11.60
2019-03-24T16:52:18.472Z,11.60
2019-03-24T16:54:50.522Z,11.50
2019-03-24T16:57:22.318Z,11.50
2019-03-24T16:59:54.078Z,11.40
2019-03-24T17:02:25.695Z,11.30
2019-03-24T17:05:03.328Z,11.30
2019-03-24T17:07:41.131Z,11.20
2019-03-24T17:10:15.827Z,11.20
2019-03-24T17:12:47.953Z,11.10
2019-03-24T17:15:19.713Z,11.00
2019-03-24T17:17:51.650Z,10.90
2019-03-24T17:20:23.367Z,10.80
2019-03-24T17:22:55.104Z,10.80
2019-03-24T17:25:26.916Z,10.70
2019-03-24T17:27:58.635Z,10.60
2019-03-24T17:30:30.401Z,10.60
2019-03-24T17:33:02.490Z,10.50
2019-03-24T17:35:34.257Z,10.50
2019-03-24T17:38:06.156Z,10.40
2019-03-24T17:40:39.116Z,10.30
2019-03-24T17:43:11.235Z,10.30
2019-03-24T17:45:43.896Z,10.20
2019-03-24T17:48:16.054Z,10.20
2019-03-24T17:50:47.976Z,10.20
2019-03-24T17:53:20.048Z,10.10
2019-03-24T17:55:52.541Z,10.10
2019-03-24T17:58:24.635Z,10.00
2019-03-24T18:00:58.409Z,10.00
2019-03-24T18:03:30.960Z,9.90
2019-03-24T18:06:03.227Z,9.90
2019-03-24T18:08:35.368Z,9.80
2019-03-24T18:11:07.678Z,9.80
2019-03-24T18:13:40.291Z,9.70
2019-03-24T18:16:13.485Z,9.70
2019-03-24T18:18:45.998Z,9.60
2019-03-24T18:21:18.629Z,9.60
2019-03-24T18:23:50.882Z,9.50
2019-03-24T18:26:23.264Z,9.40
2019-03-24T18:28:55.342Z,9.30
2019-03-24T18:31:27.908Z,9.30
2019-03-24T18:34:02.418Z,9.30
2019-03-24T18:36:34.418Z,9.30
2019-03-24T18:39:09.545Z,9.30
2019-03-24T18:41:41.399Z,9.30
2019-03-24T18:44:16.378Z,9.30
2019-03-24T18:46:48.223Z,9.30
2019-03-24T18:49:20.118Z,9.30
2019-03-24T18:51:51.822Z,9.30
2019-03-24T18:54:23.713Z,9.30
2019-03-24T18:56:56.674Z,9.30
2019-03-24T18:59:28.894Z,9.30
2019-03-24T19:02:00.664Z,9.30
2019-03-24T19:04:32.599Z,9.30
2019-03-24T19:07:04.461Z,9.30
2019-03-24T19:09:36.275Z,9.20
2019-03-24T19:12:08.019Z,9.30
2019-03-24T19:14:40.211Z,9.20
2019-03-24T19:17:12.510Z,9.20
2019-03-24T19:19:45.306Z,9.20
2019-03-24T19:22:17.298Z,9.20
2019-03-24T19:24:49.037Z,9.20
2019-03-24T19:27:21.002Z,9.10
2019-03-24T19:29:52.791Z,9.20
2019-03-24T19:32:24.888Z,9.10
2019-03-24T19:34:57.073Z,9.10
2019-03-24T19:37:29.306Z,9.10
2019-03-24T19:40:01.109Z,9.10
2019-03-24T19:42:32.968Z,9.10
2019-03-24T19:45:05.118Z,9.10
2019-03-24T19:47:36.837Z,9.10
2019-03-24T19:50:09.091Z,9.00
2019-03-24T19:52:44.851Z,9.10
2019-03-24T19:55:14.437Z,9.00
2019-03-24T19:57:47.439Z,9.00
2019-03-24T20:00:19.157Z,9.00
2019-03-24T20:02:51.016Z,9.00
2019-03-24T20:05:22.794Z,9.00
2019-03-24T20:07:54.527Z,9.00
2019-03-24T20:10:26.207Z,8.90
2019-03-24T20:13:01.384Z,8.90
2019-03-24T20:15:34.266Z,8.90
2019-03-24T20:18:07.032Z,8.90
2019-03-24T20:20:39.037Z,9.00
2019-03-24T20:23:10.824Z,8.90
2019-03-24T20:25:45.017Z,9.00
2019-03-24T20:28:18.406Z,8.90
2019-03-24T20:30:50.414Z,8.90
2019-03-24T20:33:22.159Z,8.90
2019-03-24T20:35:53.838Z,8.90
2019-03-24T20:38:25.661Z,8.80
2019-03-24T20:40:57.408Z,8.80
2019-03-24T20:43:29.164Z,8.80
2019-03-24T20:46:01.113Z,8.80
2019-03-24T20:48:33.424Z,8.80
2019-03-24T20:51:05.460Z,8.70
2019-03-24T20:53:37.363Z,8.70
2019-03-24T20:56:09.159Z,8.70
2019-03-24T20:58:40.889Z,8.70
2019-03-24T21:01:12.868Z,8.70
2019-03-24T21:03:45.561Z,8.70
2019-03-24T21:06:18.380Z,8.60
2019-03-24T21:08:50.248Z,8.60
2019-03-24T21:11:22.292Z,8.60
2019-03-24T21:13:54.082Z,8.60
2019-03-24T21:16:25.881Z,8.50
2019-03-24T21:18:57.550Z,8.50
2019-03-24T21:21:29.217Z,8.50
2019-03-24T21:24:00.934Z,8.50
2019-03-24T21:26:32.537Z,8.40
2019-03-24T21:29:04.229Z,8.40
2019-03-24T21:31:35.913Z,8.40
2019-03-24T21:34:07.513Z,8.30
2019-03-24T21:36:39.298Z,8.20
2019-03-24T21:39:10.902Z,8.20
2019-03-24T21:41:42.682Z,8.10
2019-03-24T21:44:14.311Z,8.00
2019-03-24T21:46:46.052Z,7.90
2019-03-24T21:49:18.397Z,7.80
2019-03-24T21:51:50.027Z,7.70
2019-03-24T21:54:21.789Z,7.70
2019-03-24T21:56:53.633Z,7.70
2019-03-24T21:59:25.357Z,7.60
2019-03-24T22:01:57.303Z,7.60
2019-03-24T22:04:29.405Z,7.70
2019-03-24T22:07:01.783Z,7.70
2019-03-24T22:09:33.811Z,7.70
2019-03-24T22:12:05.612Z,7.70
2019-03-24T22:14:37.704Z,7.70
2019-03-24T22:17:10.115Z,7.70
2019-03-24T22:19:41.810Z,7.70
2019-03-24T22:22:13.650Z,7.70
2019-03-24T22:24:46.645Z,7.80
2019-03-24T22:27:18.528Z,7.80
2019-03-24T22:29:50.738Z,7.80
2019-03-24T22:32:22.735Z,7.70
2019-03-24T22:34:54.628Z,7.70
2019-03-24T22:37:26.530Z,7.70
2019-03-24T22:39:58.885Z,7.60
2019-03-24T22:42:31.826Z,7.50
2019-03-24T22:45:04.708Z,7.50
2019-03-24T22:47:37.595Z,7.40
2019-03-24T22:50:10.059Z,7.30
2019-03-24T22:52:42.154Z,7.30
2019-03-24T22:55:14.002Z,7.20
2019-03-24T22:57:45.799Z,7.20
2019-03-24T23:00:23.462Z,7.20
2019-03-24T23:02:57.216Z,7.20
2019-03-24T23:05:28.909Z,7.20
2019-03-24T23:08:00.774Z,7.20
2019-03-24T23:10:32.443Z,7.20
2019-03-24T23:13:05.755Z,7.20
2019-03-24T23:15:37.398Z,7.10
2019-03-24T23:18:08.983Z,7.10
2019-03-24T23:20:40.745Z,7.10
2019-03-24T23:23:12.467Z,7.10
2019-03-24T23:25:44.207Z,7.10
2019-03-24T23:28:15.891Z,7.10
2019-03-24T23:30:47.564Z,7.10
2019-03-24T23:33:19.210Z,7.10
2019-03-24T23:35:51.084Z,7.10
2019-03-24T23:38:22.859Z,7.10
2019-03-24T23:40:54.869Z,7.10
2019-03-24T23:43:26.620Z,7.10
2019-03-24T23:45:58.679Z,7.10
2019-03-24T23:48:30.391Z,7.10
2019-03-24T23:51:02.353Z,7.10
2019-03-24T23:53:34.143Z,7.10
2019-03-24T23:56:05.948Z,7.10
2019-03-24T23:58:40.985Z,7.00
